Beverly Farms, Massachusetts
Current Conditions -  °F | °C
As of 3:13 AM on Thursday 27 Nov 2014 (Local Time) from KBVY Reporting Station
Light Snow Light Snow  
Wind Chill: 24°   Ceiling: 1500
Heat Index: 33°   Visibility: 1.7mi
Dew Point: 30°   Wind: 13mph
Humidity: 89%   Direction: 330°NNW
Pressure: 29.73"   Gusts: 24mph
Location:  42.5685°N, 70.8619°W
Report Text: KBVY 270813Z AUTO 33011G21KT 1 3/4SM -SN BR SCT009 OVC015 01/M01 A2973 RMK AO2 P0000 T00061011
Loading
Personal Weather Stations






























Interactive Weather Map New forecast layout! Learn more

10-Day Weather Forecast

Advertisements
Track Severe Weather on mobile